sensor_id;sensor_type;location;lat;lon;timestamp;temperature;humidity
19279;DHT22;9773;47.062;15.446;2023-09-30T00:01:02;14.50;99.90
19279;DHT22;9773;47.062;15.446;2023-09-30T00:03:28;14.50;99.90
19279;DHT22;9773;47.062;15.446;2023-09-30T00:05:55;14.50;99.90
19279;DHT22;9773;47.062;15.446;2023-09-30T00:08:21;14.50;99.90
19279;DHT22;9773;47.062;15.446;2023-09-30T00:10:47;14.40;99.90
19279;DHT22;9773;47.062;15.446;2023-09-30T00:13:13;14.40;99.90
19279;DHT22;9773;47.062;15.446;2023-09-30T00:15:43;14.40;99.90
19279;DHT22;9773;47.062;15.446;2023-09-30T00:18:09;14.30;99.90
19279;DHT22;9773;47.062;15.446;2023-09-30T00:20:35;14.30;99.90
19279;DHT22;9773;47.062;15.446;2023-09-30T00:23:01;14.30;99.90
19279;DHT22;9773;47.062;15.446;2023-09-30T00:25:27;14.30;99.90
19279;DHT22;9773;47.062;15.446;2023-09-30T00:27:53;14.30;99.90
19279;DHT22;9773;47.062;15.446;2023-09-30T00:30:19;14.30;99.90
19279;DHT22;9773;47.062;15.446;2023-09-30T00:32:45;14.30;99.90
19279;DHT22;9773;47.062;15.446;2023-09-30T00:35:12;13.40;99.90
19279;DHT22;9773;47.062;15.446;2023-09-30T00:37:38;14.40;99.90
19279;DHT22;9773;47.062;15.446;2023-09-30T00:40:05;14.40;99.90
19279;DHT22;9773;47.062;15.446;2023-09-30T00:42:31;14.40;99.90
19279;DHT22;9773;47.062;15.446;2023-09-30T00:44:57;14.40;99.90
19279;DHT22;9773;47.062;15.446;2023-09-30T00:47:23;14.40;99.90
19279;DHT22;9773;47.062;15.446;2023-09-30T00:49:52;14.50;99.90
19279;DHT22;9773;47.062;15.446;2023-09-30T00:52:19;14.40;99.90
19279;DHT22;9773;47.062;15.446;2023-09-30T00:54:46;14.40;99.90
19279;DHT22;9773;47.062;15.446;2023-09-30T00:57:13;14.40;99.90
19279;DHT22;9773;47.062;15.446;2023-09-30T00:59:40;14.40;99.90
19279;DHT22;9773;47.062;15.446;2023-09-30T01:02:06;14.40;99.90
19279;DHT22;9773;47.062;15.446;2023-09-30T01:04:33;14.40;99.90
19279;DHT22;9773;47.062;15.446;2023-09-30T01:06:58;14.50;99.90
19279;DHT22;9773;47.062;15.446;2023-09-30T01:09:24;14.40;99.90
19279;DHT22;9773;47.062;15.446;2023-09-30T01:11:51;14.40;99.90
19279;DHT22;9773;47.062;15.446;2023-09-30T01:14:33;14.40;99.90
19279;DHT22;9773;47.062;15.446;2023-09-30T01:17:06;14.40;99.90
19279;DHT22;9773;47.062;15.446;2023-09-30T01:19:35;14.40;99.90
19279;DHT22;9773;47.062;15.446;2023-09-30T01:22:01;14.40;99.90
19279;DHT22;9773;47.062;15.446;2023-09-30T01:24:38;14.40;99.90
19279;DHT22;9773;47.062;15.446;2023-09-30T01:27:04;14.40;99.90
19279;DHT22;9773;47.062;15.446;2023-09-30T01:29:29;14.30;99.90
19279;DHT22;9773;47.062;15.446;2023-09-30T01:31:55;14.30;99.90
19279;DHT22;9773;47.062;15.446;2023-09-30T01:34:21;14.30;99.90
19279;DHT22;9773;47.062;15.446;2023-09-30T01:36:47;14.30;99.90
19279;DHT22;9773;47.062;15.446;2023-09-30T01:39:13;14.30;99.90
19279;DHT22;9773;47.062;15.446;2023-09-30T01:41:39;14.30;99.90
19279;DHT22;9773;47.062;15.446;2023-09-30T01:44:06;14.30;99.90
19279;DHT22;9773;47.062;15.446;2023-09-30T01:46:33;14.30;99.90
19279;DHT22;9773;47.062;15.446;2023-09-30T01:48:58;14.30;99.90
19279;DHT22;9773;47.062;15.446;2023-09-30T01:51:24;14.30;99.90
19279;DHT22;9773;47.062;15.446;2023-09-30T01:53:50;14.30;99.90
19279;DHT22;9773;47.062;15.446;2023-09-30T01:56:16;14.30;99.90
19279;DHT22;9773;47.062;15.446;2023-09-30T01:58:42;14.30;99.90
19279;DHT22;9773;47.062;15.446;2023-09-30T02:01:08;14.30;99.90
19279;DHT22;9773;47.062;15.446;2023-09-30T02:03:34;14.30;99.90
19279;DHT22;9773;47.062;15.446;2023-09-30T02:06:00;14.30;99.90
19279;DHT22;9773;47.062;15.446;2023-09-30T02:08:29;14.30;99.90
19279;DHT22;9773;47.062;15.446;2023-09-30T02:10:54;14.30;99.90
19279;DHT22;9773;47.062;15.446;2023-09-30T02:13:20;14.20;99.90
19279;DHT22;9773;47.062;15.446;2023-09-30T02:15:46;14.20;99.90
19279;DHT22;9773;47.062;15.446;2023-09-30T02:18:12;14.20;99.90
19279;DHT22;9773;47.062;15.446;2023-09-30T02:20:39;14.20;99.90
19279;DHT22;9773;47.062;15.446;2023-09-30T02:23:06;14.20;99.90
19279;DHT22;9773;47.062;15.446;2023-09-30T02:25:32;14.10;99.90
19279;DHT22;9773;47.062;15.446;2023-09-30T02:27:59;14.10;99.90
19279;DHT22;9773;47.062;15.446;2023-09-30T02:30:26;14.10;99.90
19279;DHT22;9773;47.062;15.446;2023-09-30T02:32:53;14.10;99.90
19279;DHT22;9773;47.062;15.446;2023-09-30T02:35:18;14.10;99.90
19279;DHT22;9773;47.062;15.446;2023-09-30T02:37:46;14.10;99.90
19279;DHT22;9773;47.062;15.446;2023-09-30T02:40:11;14.10;99.90
19279;DHT22;9773;47.062;15.446;2023-09-30T02:42:40;14.10;99.90
19279;DHT22;9773;47.062;15.446;2023-09-30T02:45:07;14.10;99.90
19279;DHT22;9773;47.062;15.446;2023-09-30T02:47:34;14.00;99.90
19279;DHT22;9773;47.062;15.446;2023-09-30T02:50:00;14.10;99.90
19279;DHT22;9773;47.062;15.446;2023-09-30T02:52:26;14.10;99.90
19279;DHT22;9773;47.062;15.446;2023-09-30T02:54:52;14.10;99.90
19279;DHT22;9773;47.062;15.446;2023-09-30T02:57:18;14.20;99.90
19279;DHT22;9773;47.062;15.446;2023-09-30T02:59:45;14.20;99.90
19279;DHT22;9773;47.062;15.446;2023-09-30T03:02:11;14.20;99.90
19279;DHT22;9773;47.062;15.446;2023-09-30T03:04:37;14.30;99.90
19279;DHT22;9773;47.062;15.446;2023-09-30T03:07:03;14.20;99.90
19279;DHT22;9773;47.062;15.446;2023-09-30T03:09:28;14.20;99.90
19279;DHT22;9773;47.062;15.446;2023-09-30T03:11:54;14.30;99.90
19279;DHT22;9773;47.062;15.446;2023-09-30T03:14:24;14.30;99.90
19279;DHT22;9773;47.062;15.446;2023-09-30T03:16:51;14.30;99.90
19279;DHT22;9773;47.062;15.446;2023-09-30T03:19:17;14.30;99.90
19279;DHT22;9773;47.062;15.446;2023-09-30T03:21:43;14.30;99.90
19279;DHT22;9773;47.062;15.446;2023-09-30T03:24:09;14.30;99.90
19279;DHT22;9773;47.062;15.446;2023-09-30T03:26:35;14.30;99.90
19279;DHT22;9773;47.062;15.446;2023-09-30T03:29:01;14.20;99.90
19279;DHT22;9773;47.062;15.446;2023-09-30T03:31:29;14.30;99.90
19279;DHT22;9773;47.062;15.446;2023-09-30T03:33:55;14.30;99.90
19279;DHT22;9773;47.062;15.446;2023-09-30T03:36:21;14.30;99.90
19279;DHT22;9773;47.062;15.446;2023-09-30T03:38:52;14.30;99.90
19279;DHT22;9773;47.062;15.446;2023-09-30T03:41:22;14.30;99.90
19279;DHT22;9773;47.062;15.446;2023-09-30T03:43:48;14.30;99.90
19279;DHT22;9773;47.062;15.446;2023-09-30T03:46:14;14.30;99.90
19279;DHT22;9773;47.062;15.446;2023-09-30T03:48:41;14.30;99.90
19279;DHT22;9773;47.062;15.446;2023-09-30T03:51:14;14.30;99.90
19279;DHT22;9773;47.062;15.446;2023-09-30T03:53:44;14.30;99.90
19279;DHT22;9773;47.062;15.446;2023-09-30T03:56:11;14.30;99.90
19279;DHT22;9773;47.062;15.446;2023-09-30T03:58:40;14.30;99.90
19279;DHT22;9773;47.062;15.446;2023-09-30T04:01:07;14.30;99.90
19279;DHT22;9773;47.062;15.446;2023-09-30T04:03:33;14.30;99.90
19279;DHT22;9773;47.062;15.446;2023-09-30T04:06:01;14.30;99.90
19279;DHT22;9773;47.062;15.446;2023-09-30T04:08:28;14.30;99.90
19279;DHT22;9773;47.062;15.446;2023-09-30T04:10:54;14.30;99.90
19279;DHT22;9773;47.062;15.446;2023-09-30T04:13:20;14.30;99.90
19279;DHT22;9773;47.062;15.446;2023-09-30T04:15:47;14.40;99.90
19279;DHT22;9773;47.062;15.446;2023-09-30T04:18:15;14.40;99.90
19279;DHT22;9773;47.062;15.446;2023-09-30T04:20:40;14.40;99.90
19279;DHT22;9773;47.062;15.446;2023-09-30T04:23:09;14.40;99.90
19279;DHT22;9773;47.062;15.446;2023-09-30T04:25:35;14.40;99.90
19279;DHT22;9773;47.062;15.446;2023-09-30T04:28:01;14.40;99.90
19279;DHT22;9773;47.062;15.446;2023-09-30T04:30:28;14.50;99.90
19279;DHT22;9773;47.062;15.446;2023-09-30T04:32:55;14.50;99.90
19279;DHT22;9773;47.062;15.446;2023-09-30T04:35:22;14.60;99.90
19279;DHT22;9773;47.062;15.446;2023-09-30T04:37:52;14.60;99.90
19279;DHT22;9773;47.062;15.446;2023-09-30T04:40:18;14.60;99.90
19279;DHT22;9773;47.062;15.446;2023-09-30T04:42:47;14.60;99.90
19279;DHT22;9773;47.062;15.446;2023-09-30T04:45:14;14.50;99.90
19279;DHT22;9773;47.062;15.446;2023-09-30T04:47:45;14.60;99.90
19279;DHT22;9773;47.062;15.446;2023-09-30T04:50:11;14.60;99.90
19279;DHT22;9773;47.062;15.446;2023-09-30T04:52:38;14.60;99.90
19279;DHT22;9773;47.062;15.446;2023-09-30T04:55:06;14.60;99.90
19279;DHT22;9773;47.062;15.446;2023-09-30T04:57:32;14.70;99.90
19279;DHT22;9773;47.062;15.446;2023-09-30T04:59:58;14.60;99.90
19279;DHT22;9773;47.062;15.446;2023-09-30T05:02:24;14.60;99.90
19279;DHT22;9773;47.062;15.446;2023-09-30T05:04:51;14.70;99.90
19279;DHT22;9773;47.062;15.446;2023-09-30T05:07:18;14.50;99.90
19279;DHT22;9773;47.062;15.446;2023-09-30T05:09:43;14.70;99.90
19279;DHT22;9773;47.062;15.446;2023-09-30T05:12:10;14.60;99.90
19279;DHT22;9773;47.062;15.446;2023-09-30T05:14:36;14.70;99.90
19279;DHT22;9773;47.062;15.446;2023-09-30T05:17:04;14.70;99.90
19279;DHT22;9773;47.062;15.446;2023-09-30T05:19:31;14.70;99.90
19279;DHT22;9773;47.062;15.446;2023-09-30T05:21:57;14.60;99.90
19279;DHT22;9773;47.062;15.446;2023-09-30T05:24:23;14.70;99.90
19279;DHT22;9773;47.062;15.446;2023-09-30T05:26:49;14.70;99.90
19279;DHT22;9773;47.062;15.446;2023-09-30T05:29:15;14.70;99.90
19279;DHT22;9773;47.062;15.446;2023-09-30T05:31:42;14.70;99.90
19279;DHT22;9773;47.062;15.446;2023-09-30T05:34:10;14.70;99.90
19279;DHT22;9773;47.062;15.446;2023-09-30T05:36:36;14.80;99.90
19279;DHT22;9773;47.062;15.446;2023-09-30T05:39:02;14.90;99.90
19279;DHT22;9773;47.062;15.446;2023-09-30T05:41:28;15.00;99.90
19279;DHT22;9773;47.062;15.446;2023-09-30T05:43:55;15.00;99.90
19279;DHT22;9773;47.062;15.446;2023-09-30T05:46:21;15.10;99.90
19279;DHT22;9773;47.062;15.446;2023-09-30T05:48:47;15.20;99.90
19279;DHT22;9773;47.062;15.446;2023-09-30T05:51:13;15.40;99.90
19279;DHT22;9773;47.062;15.446;2023-09-30T05:53:42;15.50;99.90
19279;DHT22;9773;47.062;15.446;2023-09-30T05:56:08;15.50;99.90
19279;DHT22;9773;47.062;15.446;2023-09-30T05:58:37;15.60;99.90
19279;DHT22;9773;47.062;15.446;2023-09-30T06:01:08;15.80;99.90
19279;DHT22;9773;47.062;15.446;2023-09-30T06:03:37;15.90;99.90
19279;DHT22;9773;47.062;15.446;2023-09-30T06:06:15;16.00;99.90
19279;DHT22;9773;47.062;15.446;2023-09-30T06:08:43;16.10;99.90
19279;DHT22;9773;47.062;15.446;2023-09-30T06:11:19;16.20;99.90
19279;DHT22;9773;47.062;15.446;2023-09-30T06:13:47;16.30;99.90
19279;DHT22;9773;47.062;15.446;2023-09-30T06:16:13;16.40;99.90
19279;DHT22;9773;47.062;15.446;2023-09-30T06:18:39;16.50;99.90
19279;DHT22;9773;47.062;15.446;2023-09-30T06:21:05;16.50;99.90
19279;DHT22;9773;47.062;15.446;2023-09-30T06:23:31;16.60;99.90
19279;DHT22;9773;47.062;15.446;2023-09-30T06:25:59;16.60;99.90
19279;DHT22;9773;47.062;15.446;2023-09-30T06:28:28;16.70;99.90
19279;DHT22;9773;47.062;15.446;2023-09-30T06:30:57;16.70;99.90
19279;DHT22;9773;47.062;15.446;2023-09-30T06:33:23;16.80;99.90
19279;DHT22;9773;47.062;15.446;2023-09-30T06:35:48;16.80;99.90
19279;DHT22;9773;47.062;15.446;2023-09-30T06:38:21;16.80;99.90
19279;DHT22;9773;47.062;15.446;2023-09-30T06:40:47;16.90;99.90
19279;DHT22;9773;47.062;15.446;2023-09-30T06:43:14;16.80;99.90
19279;DHT22;9773;47.062;15.446;2023-09-30T06:45:44;16.80;99.90
19279;DHT22;9773;47.062;15.446;2023-09-30T06:48:12;16.90;99.90
19279;DHT22;9773;47.062;15.446;2023-09-30T06:50:45;16.90;99.90
19279;DHT22;9773;47.062;15.446;2023-09-30T06:53:11;16.90;99.90
19279;DHT22;9773;47.062;15.446;2023-09-30T06:55:38;17.00;99.90
19279;DHT22;9773;47.062;15.446;2023-09-30T06:58:05;17.00;99.90
19279;DHT22;9773;47.062;15.446;2023-09-30T07:00:33;17.10;99.90
19279;DHT22;9773;47.062;15.446;2023-09-30T07:03:00;17.20;99.90
19279;DHT22;9773;47.062;15.446;2023-09-30T07:05:26;17.30;99.90
19279;DHT22;9773;47.062;15.446;2023-09-30T07:07:53;17.30;99.90
19279;DHT22;9773;47.062;15.446;2023-09-30T07:10:19;17.40;99.90
19279;DHT22;9773;47.062;15.446;2023-09-30T07:12:45;17.50;99.90
19279;DHT22;9773;47.062;15.446;2023-09-30T07:15:11;17.60;99.90
19279;DHT22;9773;47.062;15.446;2023-09-30T07:17:37;17.60;99.90
19279;DHT22;9773;47.062;15.446;2023-09-30T07:20:04;17.70;99.90
19279;DHT22;9773;47.062;15.446;2023-09-30T07:22:30;17.70;99.90
19279;DHT22;9773;47.062;15.446;2023-09-30T07:24:57;17.80;99.90
19279;DHT22;9773;47.062;15.446;2023-09-30T07:27:23;17.80;99.90
19279;DHT22;9773;47.062;15.446;2023-09-30T07:29:50;17.90;99.90
19279;DHT22;9773;47.062;15.446;2023-09-30T07:32:16;18.00;99.90
19279;DHT22;9773;47.062;15.446;2023-09-30T07:34:42;18.00;99.90
19279;DHT22;9773;47.062;15.446;2023-09-30T07:37:08;18.00;99.90
19279;DHT22;9773;47.062;15.446;2023-09-30T07:39:34;18.10;99.90
19279;DHT22;9773;47.062;15.446;2023-09-30T07:42:00;18.10;99.90
19279;DHT22;9773;47.062;15.446;2023-09-30T07:44:26;18.10;99.90
19279;DHT22;9773;47.062;15.446;2023-09-30T07:46:52;18.20;99.90
19279;DHT22;9773;47.062;15.446;2023-09-30T07:49:18;18.20;99.90
19279;DHT22;9773;47.062;15.446;2023-09-30T07:51:44;18.30;99.90
19279;DHT22;9773;47.062;15.446;2023-09-30T07:54:11;18.50;99.90
19279;DHT22;9773;47.062;15.446;2023-09-30T07:56:38;18.50;99.90
19279;DHT22;9773;47.062;15.446;2023-09-30T07:59:04;18.40;99.90
19279;DHT22;9773;47.062;15.446;2023-09-30T08:01:31;18.50;99.90
19279;DHT22;9773;47.062;15.446;2023-09-30T08:03:57;18.50;99.90
19279;DHT22;9773;47.062;15.446;2023-09-30T08:06:23;18.60;99.90
19279;DHT22;9773;47.062;15.446;2023-09-30T08:08:49;18.60;99.90
19279;DHT22;9773;47.062;15.446;2023-09-30T08:11:15;18.60;99.90
19279;DHT22;9773;47.062;15.446;2023-09-30T08:13:43;18.60;99.90
19279;DHT22;9773;47.062;15.446;2023-09-30T08:16:08;18.60;99.90
19279;DHT22;9773;47.062;15.446;2023-09-30T08:18:34;18.60;99.90
19279;DHT22;9773;47.062;15.446;2023-09-30T08:21:00;18.70;99.90
19279;DHT22;9773;47.062;15.446;2023-09-30T08:23:25;18.80;99.90
19279;DHT22;9773;47.062;15.446;2023-09-30T08:25:51;18.80;99.90
19279;DHT22;9773;47.062;15.446;2023-09-30T08:28:17;18.70;99.90
19279;DHT22;9773;47.062;15.446;2023-09-30T08:30:44;18.70;99.90
19279;DHT22;9773;47.062;15.446;2023-09-30T08:33:10;18.80;99.90
19279;DHT22;9773;47.062;15.446;2023-09-30T08:35:38;18.80;99.90
19279;DHT22;9773;47.062;15.446;2023-09-30T08:38:05;18.70;99.90
19279;DHT22;9773;47.062;15.446;2023-09-30T08:40:31;18.80;99.90
19279;DHT22;9773;47.062;15.446;2023-09-30T08:42:57;18.90;99.90
19279;DHT22;9773;47.062;15.446;2023-09-30T08:45:23;18.90;99.90
19279;DHT22;9773;47.062;15.446;2023-09-30T08:47:50;18.90;99.90
19279;DHT22;9773;47.062;15.446;2023-09-30T08:50:17;19.10;99.90
19279;DHT22;9773;47.062;15.446;2023-09-30T08:52:44;19.10;99.90
19279;DHT22;9773;47.062;15.446;2023-09-30T08:55:11;19.20;99.90
19279;DHT22;9773;47.062;15.446;2023-09-30T08:57:41;19.30;99.90
19279;DHT22;9773;47.062;15.446;2023-09-30T09:00:10;19.30;99.90
19279;DHT22;9773;47.062;15.446;2023-09-30T09:02:40;19.40;99.90
19279;DHT22;9773;47.062;15.446;2023-09-30T09:05:06;19.40;99.90
19279;DHT22;9773;47.062;15.446;2023-09-30T09:07:34;19.50;99.90
19279;DHT22;9773;47.062;15.446;2023-09-30T09:10:08;19.50;99.90
19279;DHT22;9773;47.062;15.446;2023-09-30T09:12:36;19.40;99.90
19279;DHT22;9773;47.062;15.446;2023-09-30T09:15:03;19.30;99.90
19279;DHT22;9773;47.062;15.446;2023-09-30T09:17:44;19.30;99.90
19279;DHT22;9773;47.062;15.446;2023-09-30T09:20:13;19.30;99.90
19279;DHT22;9773;47.062;15.446;2023-09-30T09:22:47;19.30;99.90
19279;DHT22;9773;47.062;15.446;2023-09-30T09:25:13;19.40;99.90
19279;DHT22;9773;47.062;15.446;2023-09-30T09:27:39;19.50;99.90
19279;DHT22;9773;47.062;15.446;2023-09-30T09:30:18;19.70;99.90
19279;DHT22;9773;47.062;15.446;2023-09-30T09:33:04;19.80;99.90
19279;DHT22;9773;47.062;15.446;2023-09-30T09:35:34;20.00;99.90
19279;DHT22;9773;47.062;15.446;2023-09-30T09:40:32;20.00;99.90
19279;DHT22;9773;47.062;15.446;2023-09-30T09:42:59;20.00;99.90
19279;DHT22;9773;47.062;15.446;2023-09-30T09:45:26;20.00;99.90
19279;DHT22;9773;47.062;15.446;2023-09-30T09:47:53;19.90;99.90
19279;DHT22;9773;47.062;15.446;2023-09-30T09:50:21;19.80;99.90
19279;DHT22;9773;47.062;15.446;2023-09-30T09:52:51;19.70;99.90
19279;DHT22;9773;47.062;15.446;2023-09-30T09:55:20;19.60;99.90
19279;DHT22;9773;47.062;15.446;2023-09-30T09:57:49;19.50;99.90
19279;DHT22;9773;47.062;15.446;2023-09-30T10:00:24;19.40;99.90
19279;DHT22;9773;47.062;15.446;2023-09-30T10:02:50;19.40;99.90
19279;DHT22;9773;47.062;15.446;2023-09-30T10:05:18;19.40;99.90
19279;DHT22;9773;47.062;15.446;2023-09-30T10:10:20;19.40;99.90
19279;DHT22;9773;47.062;15.446;2023-09-30T10:12:46;19.40;99.90
19279;DHT22;9773;47.062;15.446;2023-09-30T10:18:00;19.40;99.90
19279;DHT22;9773;47.062;15.446;2023-09-30T10:20:36;19.40;99.90
19279;DHT22;9773;47.062;15.446;2023-09-30T10:25:48;19.50;99.90
19279;DHT22;9773;47.062;15.446;2023-09-30T10:28:37;19.60;99.90
19279;DHT22;9773;47.062;15.446;2023-09-30T10:31:17;19.60;99.90
19279;DHT22;9773;47.062;15.446;2023-09-30T10:34:19;19.70;99.90
19279;DHT22;9773;47.062;15.446;2023-09-30T10:36:46;19.70;99.90
19279;DHT22;9773;47.062;15.446;2023-09-30T10:39:13;19.90;99.90
19279;DHT22;9773;47.062;15.446;2023-09-30T10:46:57;20.00;99.90
19279;DHT22;9773;47.062;15.446;2023-09-30T10:51:53;20.20;99.90
19279;DHT22;9773;47.062;15.446;2023-09-30T10:54:23;20.20;99.90
19279;DHT22;9773;47.062;15.446;2023-09-30T10:56:49;20.30;99.90
19279;DHT22;9773;47.062;15.446;2023-09-30T10:59:25;20.50;99.90
19279;DHT22;9773;47.062;15.446;2023-09-30T11:01:51;20.50;99.90
19279;DHT22;9773;47.062;15.446;2023-09-30T11:04:19;20.50;99.90
19279;DHT22;9773;47.062;15.446;2023-09-30T11:06:46;20.60;99.90
19279;DHT22;9773;47.062;15.446;2023-09-30T11:09:19;20.60;99.90
19279;DHT22;9773;47.062;15.446;2023-09-30T11:11:51;20.70;99.90
19279;DHT22;9773;47.062;15.446;2023-09-30T11:14:30;20.80;99.90
19279;DHT22;9773;47.062;15.446;2023-09-30T11:17:03;20.90;99.90
19279;DHT22;9773;47.062;15.446;2023-09-30T11:19:59;20.90;99.90
19279;DHT22;9773;47.062;15.446;2023-09-30T11:22:25;20.90;99.90
19279;DHT22;9773;47.062;15.446;2023-09-30T11:24:51;21.00;99.90
19279;DHT22;9773;47.062;15.446;2023-09-30T11:27:23;21.00;99.90
19279;DHT22;9773;47.062;15.446;2023-09-30T11:29:52;21.10;99.90
19279;DHT22;9773;47.062;15.446;2023-09-30T11:32:28;21.10;99.90
19279;DHT22;9773;47.062;15.446;2023-09-30T11:34:55;21.20;99.90
19279;DHT22;9773;47.062;15.446;2023-09-30T11:37:21;21.40;99.90
19279;DHT22;9773;47.062;15.446;2023-09-30T11:39:49;21.40;99.90
19279;DHT22;9773;47.062;15.446;2023-09-30T11:42:16;21.50;99.90
19279;DHT22;9773;47.062;15.446;2023-09-30T11:44:48;21.60;99.90
19279;DHT22;9773;47.062;15.446;2023-09-30T11:47:16;21.60;99.90
19279;DHT22;9773;47.062;15.446;2023-09-30T11:49:43;21.40;99.90
19279;DHT22;9773;47.062;15.446;2023-09-30T11:52:14;21.50;99.90
19279;DHT22;9773;47.062;15.446;2023-09-30T11:54:44;21.50;99.90
19279;DHT22;9773;47.062;15.446;2023-09-30T11:57:11;21.70;99.90
19279;DHT22;9773;47.062;15.446;2023-09-30T11:59:40;21.80;99.90
19279;DHT22;9773;47.062;15.446;2023-09-30T12:02:07;21.90;99.90
19279;DHT22;9773;47.062;15.446;2023-09-30T12:04:37;22.00;99.90
19279;DHT22;9773;47.062;15.446;2023-09-30T12:07:03;22.20;99.90
19279;DHT22;9773;47.062;15.446;2023-09-30T12:09:29;22.30;99.90
19279;DHT22;9773;47.062;15.446;2023-09-30T12:11:57;22.50;99.90
19279;DHT22;9773;47.062;15.446;2023-09-30T12:14:24;22.60;99.90
19279;DHT22;9773;47.062;15.446;2023-09-30T12:16:50;22.70;99.90
19279;DHT22;9773;47.062;15.446;2023-09-30T12:19:20;22.90;99.90
19279;DHT22;9773;47.062;15.446;2023-09-30T12:21:46;23.00;99.90
19279;DHT22;9773;47.062;15.446;2023-09-30T12:24:14;23.00;99.90
19279;DHT22;9773;47.062;15.446;2023-09-30T12:26:45;23.10;99.90
19279;DHT22;9773;47.062;15.446;2023-09-30T12:29:21;23.10;99.90
19279;DHT22;9773;47.062;15.446;2023-09-30T12:31:48;22.90;99.90
19279;DHT22;9773;47.062;15.446;2023-09-30T12:34:14;22.70;99.90
19279;DHT22;9773;47.062;15.446;2023-09-30T12:36:41;22.60;99.90
19279;DHT22;9773;47.062;15.446;2023-09-30T12:39:08;22.70;99.90
19279;DHT22;9773;47.062;15.446;2023-09-30T12:41:39;22.50;99.90
19279;DHT22;9773;47.062;15.446;2023-09-30T12:44:06;22.50;99.90
19279;DHT22;9773;47.062;15.446;2023-09-30T12:46:32;22.50;99.90
19279;DHT22;9773;47.062;15.446;2023-09-30T12:49:03;22.60;99.90
19279;DHT22;9773;47.062;15.446;2023-09-30T12:51:29;22.70;99.90
19279;DHT22;9773;47.062;15.446;2023-09-30T12:53:56;22.80;99.90
19279;DHT22;9773;47.062;15.446;2023-09-30T12:56:23;22.90;99.90
19279;DHT22;9773;47.062;15.446;2023-09-30T12:58:51;22.90;99.90
19279;DHT22;9773;47.062;15.446;2023-09-30T13:01:16;22.90;99.90
19279;DHT22;9773;47.062;15.446;2023-09-30T13:03:44;22.80;99.90
19279;DHT22;9773;47.062;15.446;2023-09-30T13:06:10;22.90;99.90
19279;DHT22;9773;47.062;15.446;2023-09-30T13:08:36;22.70;99.90
19279;DHT22;9773;47.062;15.446;2023-09-30T13:11:03;22.70;99.90
19279;DHT22;9773;47.062;15.446;2023-09-30T13:13:30;22.70;99.90
19279;DHT22;9773;47.062;15.446;2023-09-30T13:15:59;22.70;99.90
19279;DHT22;9773;47.062;15.446;2023-09-30T13:18:25;22.60;99.90
19279;DHT22;9773;47.062;15.446;2023-09-30T13:20:51;22.70;99.90
19279;DHT22;9773;47.062;15.446;2023-09-30T13:23:20;22.70;99.90
19279;DHT22;9773;47.062;15.446;2023-09-30T13:25:46;22.60;99.90
19279;DHT22;9773;47.062;15.446;2023-09-30T13:28:13;22.50;99.90
19279;DHT22;9773;47.062;15.446;2023-09-30T13:30:39;22.40;99.90
19279;DHT22;9773;47.062;15.446;2023-09-30T13:33:04;22.30;99.90
19279;DHT22;9773;47.062;15.446;2023-09-30T13:35:30;22.40;99.90
19279;DHT22;9773;47.062;15.446;2023-09-30T13:37:57;22.40;99.90
19279;DHT22;9773;47.062;15.446;2023-09-30T13:40:23;22.30;99.90
19279;DHT22;9773;47.062;15.446;2023-09-30T13:42:49;22.30;99.90
19279;DHT22;9773;47.062;15.446;2023-09-30T13:45:15;22.30;99.90
19279;DHT22;9773;47.062;15.446;2023-09-30T13:47:43;22.30;99.90
19279;DHT22;9773;47.062;15.446;2023-09-30T13:50:09;22.30;99.90
19279;DHT22;9773;47.062;15.446;2023-09-30T13:52:35;22.30;99.90
19279;DHT22;9773;47.062;15.446;2023-09-30T13:55:02;22.30;99.90
19279;DHT22;9773;47.062;15.446;2023-09-30T13:57:29;22.30;99.90
19279;DHT22;9773;47.062;15.446;2023-09-30T13:59:55;22.30;99.90
19279;DHT22;9773;47.062;15.446;2023-09-30T14:02:21;22.30;99.90
19279;DHT22;9773;47.062;15.446;2023-09-30T14:04:48;22.20;99.90
19279;DHT22;9773;47.062;15.446;2023-09-30T14:07:14;22.10;99.90
19279;DHT22;9773;47.062;15.446;2023-09-30T14:09:40;22.10;99.90
19279;DHT22;9773;47.062;15.446;2023-09-30T14:12:06;22.10;99.90
19279;DHT22;9773;47.062;15.446;2023-09-30T14:14:33;22.10;99.90
19279;DHT22;9773;47.062;15.446;2023-09-30T14:17:03;22.10;99.90
19279;DHT22;9773;47.062;15.446;2023-09-30T14:19:37;22.20;99.90
19279;DHT22;9773;47.062;15.446;2023-09-30T14:22:04;22.10;99.90
19279;DHT22;9773;47.062;15.446;2023-09-30T14:24:31;22.10;99.90
19279;DHT22;9773;47.062;15.446;2023-09-30T14:26:59;22.10;99.90
19279;DHT22;9773;47.062;15.446;2023-09-30T14:29:24;22.10;99.90
19279;DHT22;9773;47.062;15.446;2023-09-30T14:31:50;22.10;99.90
19279;DHT22;9773;47.062;15.446;2023-09-30T14:34:17;22.10;99.90
19279;DHT22;9773;47.062;15.446;2023-09-30T14:36:43;22.20;99.90
19279;DHT22;9773;47.062;15.446;2023-09-30T14:39:10;22.20;99.90
19279;DHT22;9773;47.062;15.446;2023-09-30T14:41:36;22.20;99.90
19279;DHT22;9773;47.062;15.446;2023-09-30T14:44:02;22.20;99.90
19279;DHT22;9773;47.062;15.446;2023-09-30T14:46:34;22.20;99.90
19279;DHT22;9773;47.062;15.446;2023-09-30T14:49:00;22.30;99.90
19279;DHT22;9773;47.062;15.446;2023-09-30T14:51:26;22.20;99.90
19279;DHT22;9773;47.062;15.446;2023-09-30T14:53:52;22.20;99.90
19279;DHT22;9773;47.062;15.446;2023-09-30T14:56:18;22.10;99.90
19279;DHT22;9773;47.062;15.446;2023-09-30T14:58:44;22.10;99.90
19279;DHT22;9773;47.062;15.446;2023-09-30T15:01:11;22.10;99.90
19279;DHT22;9773;47.062;15.446;2023-09-30T15:03:38;22.10;99.90
19279;DHT22;9773;47.062;15.446;2023-09-30T15:06:07;22.00;99.90
19279;DHT22;9773;47.062;15.446;2023-09-30T15:08:34;21.90;99.90
19279;DHT22;9773;47.062;15.446;2023-09-30T15:11:00;21.90;99.90
19279;DHT22;9773;47.062;15.446;2023-09-30T15:13:28;21.90;99.90
19279;DHT22;9773;47.062;15.446;2023-09-30T15:15:54;21.90;99.90
19279;DHT22;9773;47.062;15.446;2023-09-30T15:18:19;21.90;99.90
19279;DHT22;9773;47.062;15.446;2023-09-30T15:20:45;21.80;99.90
19279;DHT22;9773;47.062;15.446;2023-09-30T15:23:13;21.80;99.90
19279;DHT22;9773;47.062;15.446;2023-09-30T15:25:42;21.80;99.90
19279;DHT22;9773;47.062;15.446;2023-09-30T15:28:13;21.70;99.90
19279;DHT22;9773;47.062;15.446;2023-09-30T15:30:39;21.60;99.90
19279;DHT22;9773;47.062;15.446;2023-09-30T15:33:05;21.60;99.90
19279;DHT22;9773;47.062;15.446;2023-09-30T15:35:31;21.60;99.90
19279;DHT22;9773;47.062;15.446;2023-09-30T15:37:58;21.50;99.90
19279;DHT22;9773;47.062;15.446;2023-09-30T15:40:24;21.50;99.90
19279;DHT22;9773;47.062;15.446;2023-09-30T15:42:50;21.40;99.90
19279;DHT22;9773;47.062;15.446;2023-09-30T15:45:16;21.40;99.90
19279;DHT22;9773;47.062;15.446;2023-09-30T15:47:44;20.40;99.90
19279;DHT22;9773;47.062;15.446;2023-09-30T15:50:10;21.40;99.90